Time;durP1;ratioP1;P1;durP2;ratioP2;P2;SDS_P1;SDS_P2;PMS_P1;PMS_P2;Temp;Humidity;BMP_temperature;BMP_pressure;BME280_temperature;BME280_humidity;BME280_pressure;Samples;Min_cycle;Max_cycle;Signal;HPM_P1;HPM_P2
2021/12/31 00:01:35;;;;;;;2.55;1.40;;;;;;;12.17;82.60;97364.50;4948242;29;20047;-82
2021/12/31 00:04:04;;;;;;;1.95;1.55;;;;;;;12.19;83.02;97357.28;4947265;29;20058;-83
2021/12/31 00:06:32;;;;;;;3.17;1.45;;;;;;;12.21;83.82;97351.91;4946429;29;20062;-81
2021/12/31 00:09:01;;;;;;;1.55;1.40;;;;;;;12.20;83.96;97353.72;4947385;29;20059;-81
2021/12/31 00:11:28;;;;;;;1.50;1.40;;;;;;;12.19;84.12;97357.28;4947894;29;20062;-81
2021/12/31 00:13:56;;;;;;;1.83;1.60;;;;;;;12.19;83.94;97352.06;4946843;29;20058;-81
2021/12/31 00:16:23;;;;;;;1.45;1.38;;;;;;;12.17;83.65;97348.81;4946510;29;20047;-82
2021/12/31 00:18:53;;;;;;;2.08;1.83;;;;;;;12.15;83.00;97348.16;4947122;29;20044;-81
2021/12/31 00:21:20;;;;;;;1.80;1.70;;;;;;;12.15;82.66;97346.34;4947608;29;20054;-79
2021/12/31 00:23:48;;;;;;;1.63;1.50;;;;;;;12.15;82.96;97348.16;4947465;29;20470;-80
2021/12/31 00:26:17;;;;;;;1.83;1.73;;;;;;;12.16;82.91;97348.00;4946678;29;20062;-80
2021/12/31 00:28:44;;;;;;;1.58;1.40;;;;;;;12.14;82.42;97334.28;4947097;29;20063;-80
2021/12/31 00:31:12;;;;;;;1.58;1.48;;;;;;;12.14;82.86;97343.94;4945958;29;20054;-81
2021/12/31 00:33:39;;;;;;;2.47;1.20;;;;;;;12.15;82.28;97342.94;4946713;29;20056;-79
2021/12/31 00:36:07;;;;;;;1.88;1.30;;;;;;;12.14;82.64;97344.75;4946182;29;20059;-80
2021/12/31 00:38:35;;;;;;;2.00;1.90;;;;;;;12.16;83.36;97345.38;4945733;29;20044;-80
2021/12/31 00:41:02;;;;;;;3.35;1.90;;;;;;;12.19;83.54;97346.03;4946008;29;20502;-80
2021/12/31 00:43:31;;;;;;;1.88;1.38;;;;;;;12.17;82.68;97354.03;4945145;29;20047;-79
2021/12/31 00:46:01;;;;;;;1.50;1.40;;;;;;;12.18;82.40;97352.22;4945329;29;20055;-81
2021/12/31 00:48:30;;;;;;;2.15;1.30;;;;;;;12.19;83.14;97352.06;4945795;29;20062;-79
2021/12/31 00:50:58;;;;;;;1.52;1.17;;;;;;;12.19;82.10;97353.88;4943322;29;20067;-78
2021/12/31 00:53:25;;;;;;;1.40;1.20;;;;;;;12.19;83.04;97351.25;4943579;29;20079;-78
2021/12/31 00:55:53;;;;;;;1.60;1.30;;;;;;;12.20;83.39;97356.31;4942834;29;20059;-81
2021/12/31 00:58:21;;;;;;;1.45;1.00;;;;;;;12.20;82.90;97353.72;4942867;29;20056;-78
2021/12/31 01:00:50;;;;;;;1.10;0.90;;;;;;;12.20;82.47;97352.88;4942708;29;20134;-81
2021/12/31 01:03:18;;;;;;;1.77;1.67;;;;;;;12.20;83.08;97347.63;4941919;29;20106;-82
2021/12/31 01:05:45;;;;;;;2.72;1.70;;;;;;;12.21;83.72;97346.66;4945738;29;20498;-83
2021/12/31 01:08:13;;;;;;;2.00;1.48;;;;;;;12.19;82.23;97352.06;4947086;29;20051;-77
2021/12/31 01:10:40;;;;;;;2.95;1.40;;;;;;;12.20;83.09;97363.34;4945868;29;20048;-78
2021/12/31 01:13:13;;;;;;;1.73;1.30;;;;;;;12.21;83.65;97363.16;4947363;29;20437;-79
2021/12/31 01:15:43;;;;;;;1.50;1.40;;;;;;;12.22;83.08;97362.16;4950234;29;20506;-81
2021/12/31 01:18:27;;;;;;;2.20;1.48;;;;;;;12.20;81.66;97369.41;4948440;29;20051;-80
2021/12/31 01:20:55;;;;;;;1.52;1.25;;;;;;;12.19;82.51;97373.00;4948086;29;20051;-81
2021/12/31 01:23:22;;;;;;;1.67;1.50;;;;;;;12.19;82.51;97372.19;4947634;29;20048;-80
2021/12/31 01:25:50;;;;;;;2.35;1.02;;;;;;;12.19;83.08;97378.22;4947348;29;20063;-79
2021/12/31 01:28:19;;;;;;;3.63;1.65;;;;;;;12.17;82.72;97374.97;4946337;29;20525;-78
2021/12/31 01:30:46;;;;;;;1.98;1.25;;;;;;;12.19;82.87;97377.41;4946463;29;20055;-79
2021/12/31 01:33:15;;;;;;;4.22;2.13;;;;;;;12.18;83.74;97374.00;4968123;23;20058;-76
2021/12/31 01:35:43;;;;;;;1.30;1.20;;;;;;;12.16;82.46;97371.53;4957656;28;20058;-76
2021/12/31 01:38:10;;;;;;;1.17;0.90;;;;;;;12.18;82.71;97371.38;4957500;29;20054;-76
2021/12/31 01:40:38;;;;;;;3.50;1.42;;;;;;;12.18;81.66;97379.22;4957648;29;20059;-76
2021/12/31 01:43:06;;;;;;;2.38;1.23;;;;;;;12.19;82.42;97375.59;4953733;29;20058;-76
2021/12/31 01:45:43;;;;;;;1.80;1.00;;;;;;;12.20;83.53;97377.25;4938129;29;20063;-77
2021/12/31 01:48:22;;;;;;;2.25;1.33;;;;;;;12.20;82.92;97368.56;4938459;29;20056;-77
2021/12/31 01:50:51;;;;;;;1.00;0.95;;;;;;;12.21;83.90;97375.44;4951501;29;20044;-77
2021/12/31 01:53:22;;;;;;;1.95;1.08;;;;;;;12.23;83.72;97376.09;4951479;29;20048;-77
2021/12/31 01:55:51;;;;;;;1.88;0.70;;;;;;;12.23;83.66;97378.69;4950818;29;20051;-76
2021/12/31 01:58:22;;;;;;;0.70;0.70;;;;;;;12.23;83.27;97378.69;4943485;29;20521;-77
2021/12/31 02:00:50;;;;;;;0.70;0.70;;;;;;;12.23;83.51;97374.28;4942137;29;20058;-77
2021/12/31 02:03:19;;;;;;;1.20;0.98;;;;;;;12.21;82.52;97370.22;4945581;29;20091;-77
2021/12/31 02:05:47;;;;;;;1.35;1.25;;;;;;;12.21;83.19;97370.22;4940521;29;20422;-77
2021/12/31 02:08:18;;;;;;;0.85;0.70;;;;;;;12.19;82.65;97370.38;4937874;29;20059;-76
2021/12/31 02:10:50;;;;;;;1.00;0.90;;;;;;;12.19;83.33;97366.94;4937817;29;20047;-77
2021/12/31 02:13:17;;;;;;;1.02;0.80;;;;;;;12.20;83.79;97369.41;4937885;29;20051;-77
2021/12/31 02:15:45;;;;;;;0.90;0.70;;;;;;;12.21;83.92;97373.63;4936576;29;20122;-76
2021/12/31 02:18:13;;;;;;;1.55;1.00;;;;;;;12.20;83.92;97364.19;4937593;29;20056;-77
2021/12/31 02:20:45;;;;;;;0.82;0.80;;;;;;;12.22;84.33;97377.06;4937534;29;20058;-77
2021/12/31 02:23:16;;;;;;;1.80;0.95;;;;;;;12.21;84.38;97371.03;4937616;29;20107;-77
2021/12/31 02:25:44;;;;;;;1.92;1.13;;;;;;;12.20;83.92;97369.41;4937443;29;20059;-77
2021/12/31 02:28:11;;;;;;;3.67;1.02;;;;;;;12.19;83.58;97367.75;4937273;29;20052;-77
2021/12/31 02:30:39;;;;;;;0.90;0.73;;;;;;;12.15;81.88;97366.47;4937251;29;20506;-76
2021/12/31 02:33:06;;;;;;;1.00;0.77;;;;;;;12.14;82.97;97373.50;4937029;29;20059;-77
2021/12/31 02:35:35;;;;;;;3.15;1.00;;;;;;;12.14;82.96;97359.63;4937293;29;20055;-77
2021/12/31 02:38:06;;;;;;;1.00;0.90;;;;;;;12.12;80.72;97364.22;4937041;29;20071;-77
2021/12/31 02:40:35;;;;;;;1.38;1.20;;;;;;;12.11;82.17;97360.78;4937267;29;20052;-77
2021/12/31 02:43:04;;;;;;;1.25;0.88;;;;;;;12.11;82.15;97359.94;4937003;29;20052;-77
2021/12/31 02:45:35;;;;;;;1.98;1.25;;;;;;;12.10;82.20;97358.34;4937232;29;20057;-77
2021/12/31 02:48:05;;;;;;;0.93;0.90;;;;;;;12.07;81.78;97363.91;4937168;29;20514;-77
2021/12/31 02:50:34;;;;;;;1.83;0.77;;;;;;;12.06;82.50;97360.47;4936921;29;20059;-77
2021/12/31 02:53:03;;;;;;;0.80;0.70;;;;;;;12.05;82.12;97355.44;4937030;29;20051;-77
2021/12/31 02:55:35;;;;;;;1.08;0.98;;;;;;;12.07;83.00;97358.66;4936897;29;20061;-77
2021/12/31 02:58:04;;;;;;;0.60;0.60;;;;;;;12.07;83.17;97350.81;4936828;29;20070;-77
2021/12/31 03:00:32;;;;;;;1.02;1.02;;;;;;;12.06;83.37;97351.81;4936741;29;20510;-77
2021/12/31 03:03:01;;;;;;;1.20;0.93;;;;;;;12.01;82.47;97343.69;4936738;29;20118;-77
2021/12/31 03:05:30;;;;;;;2.47;1.13;;;;;;;11.93;80.92;97341.91;4936736;29;20126;-77
2021/12/31 03:07:59;;;;;;;1.10;0.90;;;;;;;11.86;80.81;97344.38;4936453;29;20047;-77
2021/12/31 03:10:28;;;;;;;1.83;1.13;;;;;;;11.80;80.05;97345.06;4936685;29;20462;-77
2021/12/31 03:12:58;;;;;;;3.78;1.13;;;;;;;11.72;79.26;97340.69;4936201;29;20048;-77
2021/12/31 03:15:26;;;;;;;2.85;1.38;;;;;;;11.64;79.39;97345.16;4936730;29;20048;-77
2021/12/31 03:17:57;;;;;;;1.73;1.27;;;;;;;11.58;79.67;97348.44;4936488;29;20433;-77
2021/12/31 03:20:36;;;;;;;1.33;1.10;;;;;;;11.52;79.59;97347.28;4936324;29;20074;-77
2021/12/31 03:23:04;;;;;;;2.55;1.30;;;;;;;11.44;79.30;97348.16;4936296;29;20510;-76
2021/12/31 03:25:32;;;;;;;2.40;1.35;;;;;;;11.39;79.67;97345.25;4936137;29;20052;-77
2021/12/31 03:28:01;;;;;;;1.05;1.05;;;;;;;11.34;79.46;97339.69;4936250;29;20048;-77
2021/12/31 03:30:29;;;;;;;1.35;1.02;;;;;;;11.28;79.77;97337.75;4936371;29;20505;-77
2021/12/31 03:32:56;;;;;;;1.38;1.25;;;;;;;11.24;79.81;97336.44;4936078;29;20048;-77
2021/12/31 03:35:24;;;;;;;1.23;1.10;;;;;;;11.18;79.73;97339.75;4936235;29;20063;-76
2021/12/31 03:37:54;;;;;;;1.65;1.30;;;;;;;11.13;80.04;97330.63;4936031;29;20055;-77
2021/12/31 03:40:22;;;;;;;1.70;1.58;;;;;;;11.08;79.67;97327.66;4936365;29;20139;-76
2021/12/31 03:42:49;;;;;;;1.67;1.17;;;;;;;11.01;79.44;97331.13;4936273;29;20045;-77
2021/12/31 03:45:18;;;;;;;3.28;1.38;;;;;;;10.95;79.54;97331.78;4936483;29;20454;-77
2021/12/31 03:47:46;;;;;;;1.48;1.25;;;;;;;10.88;79.79;97337.66;4935919;29;20055;-77
2021/12/31 03:50:13;;;;;;;1.30;1.20;;;;;;;10.80;79.68;97334.25;4938417;29;20055;-77
2021/12/31 03:52:41;;;;;;;3.72;1.40;;;;;;;10.74;80.05;97337.53;4940507;29;20047;-77
2021/12/31 03:55:11;;;;;;;1.83;1.63;;;;;;;10.72;81.05;97346.34;4940955;29;20062;-77
2021/12/31 03:57:39;;;;;;;1.63;1.52;;;;;;;10.74;82.38;97345.38;4939202;29;20059;-77
2021/12/31 04:00:09;;;;;;;3.03;1.48;;;;;;;10.70;81.55;97344.88;4935924;29;20067;-77
2021/12/31 04:02:38;;;;;;;2.55;1.08;;;;;;;10.61;80.23;97340.66;4935769;29;20054;-76
2021/12/31 04:05:06;;;;;;;3.78;1.20;;;;;;;10.48;80.02;97328.91;4935552;29;20107;-77
2021/12/31 04:07:34;;;;;;;1.38;1.10;;;;;;;10.42;79.85;97339.16;4935681;29;20051;-77
2021/12/31 04:10:01;;;;;;;1.38;1.20;;;;;;;10.37;82.06;97334.44;4935852;29;20047;-76
2021/12/31 04:12:29;;;;;;;1.45;1.00;;;;;;;10.33;80.90;97342.75;4935399;29;20502;-76
2021/12/31 04:14:56;;;;;;;1.15;1.00;;;;;;;10.25;80.20;97343.50;4935846;29;20078;-76
2021/12/31 04:17:24;;;;;;;2.20;1.33;;;;;;;10.23;80.49;97348.06;4935521;29;20070;-77
2021/12/31 04:19:56;;;;;;;2.67;1.35;;;;;;;10.19;80.13;97345.00;4935741;29;20051;-76
2021/12/31 04:22:25;;;;;;;1.20;1.10;;;;;;;10.15;79.78;97345.47;4935873;29;20044;-77
2021/12/31 04:24:53;;;;;;;1.30;1.20;;;;;;;10.08;79.43;97342.69;4935468;29;20051;-77
2021/12/31 04:27:22;;;;;;;2.58;1.10;;;;;;;10.03;80.05;97342.34;4934999;29;20055;-77
2021/12/31 04:29:53;;;;;;;2.05;0.80;;;;;;;9.98;79.50;97347.22;4935136;29;20055;-76
2021/12/31 04:32:23;;;;;;;1.10;0.93;;;;;;;9.86;79.18;97338.88;4935398;29;20054;-77
2021/12/31 04:34:51;;;;;;;1.33;1.23;;;;;;;9.76;79.25;97346.84;4935267;29;20055;-77
2021/12/31 04:37:19;;;;;;;2.38;0.98;;;;;;;9.68;79.36;97338.97;4935070;29;20051;-77
2021/12/31 04:39:47;;;;;;;1.65;1.55;;;;;;;9.62;79.46;97339.59;4934652;29;20051;-77
2021/12/31 04:42:14;;;;;;;1.15;1.00;;;;;;;9.55;79.56;97341.22;4934968;29;20050;-76
2021/12/31 04:44:42;;;;;;;3.05;1.38;;;;;;;9.49;79.74;97340.06;4935045;29;20414;-77
2021/12/31 04:47:09;;;;;;;1.35;1.23;;;;;;;9.44;79.81;97343.13;4934926;29;20059;-76
2021/12/31 04:49:37;;;;;;;2.40;1.08;;;;;;;9.37;79.93;97342.13;4935087;29;20529;-77
2021/12/31 04:52:05;;;;;;;2.45;0.95;;;;;;;9.32;79.96;97339.19;4934995;29;20098;-77
2021/12/31 04:54:34;;;;;;;4.25;1.00;;;;;;;9.28;80.04;97343.06;4934854;29;20059;-77
2021/12/31 04:57:03;;;;;;;1.10;1.00;;;;;;;9.25;80.44;97331.16;4943442;29;20048;-77
2021/12/31 04:59:30;;;;;;;2.10;1.38;;;;;;;9.23;80.18;97334.91;4946038;29;20047;-77
2021/12/31 05:01:58;;;;;;;1.52;0.77;;;;;;;9.21;80.34;97331.63;4944704;29;20047;-77
2021/12/31 05:04:26;;;;;;;1.10;1.00;;;;;;;9.19;80.52;97331.78;4935166;29;20139;-76
2021/12/31 05:06:54;;;;;;;1.25;1.10;;;;;;;9.18;80.72;97335.38;4944728;29;20056;-76
2021/12/31 05:09:21;;;;;;;1.88;1.05;;;;;;;9.20;80.94;97330.00;4950235;29;20549;-77
2021/12/31 05:11:50;;;;;;;2.47;1.25;;;;;;;9.22;82.58;97330.66;4942984;29;20056;-76
2021/12/31 05:14:18;;;;;;;2.35;0.90;;;;;;;9.22;81.49;97336.66;4935674;29;20060;-77
2021/12/31 05:16:47;;;;;;;3.20;1.70;;;;;;;9.21;81.33;97342.06;4934738;29;20079;-77
2021/12/31 05:19:14;;;;;;;1.27;0.82;;;;;;;9.20;81.17;97330.00;4949427;29;20053;-77
2021/12/31 05:21:42;;;;;;;2.55;0.90;;;;;;;9.23;81.20;97333.09;4946318;29;20056;-76
2021/12/31 05:24:09;;;;;;;3.67;1.27;;;;;;;9.22;80.59;97326.25;4934775;29;20055;-77
2021/12/31 05:26:37;;;;;;;0.85;0.85;;;;;;;9.18;80.61;97337.97;4934942;29;20110;-77
2021/12/31 05:29:05;;;;;;;1.98;1.10;;;;;;;9.19;81.17;97344.00;4934954;29;20048;-76
2021/12/31 05:31:33;;;;;;;3.10;1.45;;;;;;;9.17;80.48;97344.13;4934806;29;20055;-76
2021/12/31 05:34:01;;;;;;;2.25;1.27;;;;;;;9.13;80.56;97334.19;4934977;29;20054;-77
2021/12/31 05:36:28;;;;;;;1.45;1.30;;;;;;;9.10;80.31;97334.50;4934422;29;20517;-76
2021/12/31 05:38:56;;;;;;;2.25;1.20;;;;;;;9.11;82.42;97331.72;4935115;29;20054;-76
2021/12/31 05:41:23;;;;;;;1.23;0.90;;;;;;;9.15;83.08;97337.47;4935164;29;20048;-76
2021/12/31 05:43:51;;;;;;;2.15;1.20;;;;;;;9.12;81.47;97340.34;4934656;29;20051;-76
2021/12/31 05:46:20;;;;;;;2.75;1.10;;;;;;;9.04;80.73;97341.94;4934315;29;20055;-76
2021/12/31 05:48:47;;;;;;;2.28;1.00;;;;;;;8.97;80.57;97340.94;4934667;29;20154;-76
2021/12/31 05:51:15;;;;;;;2.33;1.38;;;;;;;8.92;80.66;97344.94;4936048;29;20517;-77
2021/12/31 05:53:43;;;;;;;1.10;1.05;;;;;;;8.85;80.49;97342.97;4938365;29;20052;-76
2021/12/31 05:56:10;;;;;;;2.97;1.20;;;;;;;8.82;80.60;97342.47;4938125;29;20060;-76
2021/12/31 05:58:38;;;;;;;1.73;1.10;;;;;;;8.79;80.57;97342.75;4938225;29;20441;-76
2021/12/31 06:01:05;;;;;;;1.60;1.00;;;;;;;8.73;80.69;97340.78;4938095;29;20052;-77
2021/12/31 06:03:35;;;;;;;1.08;1.00;;;;;;;8.65;80.57;97334.53;4938141;29;20055;-76
2021/12/31 06:06:02;;;;;;;1.92;1.10;;;;;;;8.60;80.62;97335.97;4938054;29;20055;-76
2021/12/31 06:08:30;;;;;;;1.48;1.20;;;;;;;8.53;80.72;97333.16;4938145;29;20047;-77
2021/12/31 06:10:57;;;;;;;2.03;1.42;;;;;;;8.47;80.91;97331.16;4937938;29;20051;-76
2021/12/31 06:13:25;;;;;;;2.00;1.15;;;;;;;8.41;80.86;97318.75;4937846;29;20494;-76
2021/12/31 06:15:57;;;;;;;3.53;1.52;;;;;;;8.34;80.83;97322.88;4937416;29;20047;-76
2021/12/31 06:18:26;;;;;;;4.00;1.73;;;;;;;8.29;81.08;97325.09;4937766;29;20066;-76
2021/12/31 06:20:55;;;;;;;2.45;1.88;;;;;;;8.23;80.90;97319.53;4937985;29;20052;-76
2021/12/31 06:23:23;;;;;;;2.45;2.25;;;;;;;8.15;81.14;97319.47;4938158;29;20598;-76
2021/12/31 06:25:50;;;;;;;2.33;1.70;;;;;;;8.09;81.13;97321.84;4948663;29;20044;-76
2021/12/31 06:28:18;;;;;;;3.65;1.98;;;;;;;8.05;81.20;97323.94;4959661;29;20056;-77
2021/12/31 06:30:45;;;;;;;2.35;1.70;;;;;;;8.01;81.45;97331.19;4959407;29;20075;-76
2021/12/31 06:33:13;;;;;;;1.90;1.80;;;;;;;8.01;81.77;97336.38;4952075;29;20066;-76
2021/12/31 06:35:40;;;;;;;4.05;2.60;;;;;;;8.01;81.54;97332.97;4940483;29;20056;-76
2021/12/31 06:38:09;;;;;;;2.03;1.60;;;;;;;8.00;81.73;97331.34;4938186;29;20525;-76
2021/12/31 06:40:37;;;;;;;2.83;1.63;;;;;;;8.00;81.68;97336.53;4937767;29;20067;-76
2021/12/31 06:43:04;;;;;;;5.28;1.83;;;;;;;8.00;81.67;97331.34;4937885;29;20047;-77
2021/12/31 06:45:32;;;;;;;2.25;2.03;;;;;;;8.00;81.35;97341.72;4937787;29;20111;-77
2021/12/31 06:47:59;;;;;;;1.92;1.42;;;;;;;7.95;81.47;97339.56;4937419;29;20051;-76
2021/12/31 06:50:29;;;;;;;3.15;1.45;;;;;;;7.93;81.46;97340.69;4937493;29;20051;-76
2021/12/31 06:52:57;;;;;;;2.50;1.35;;;;;;;7.87;81.61;97344.69;4937253;29;20052;-76
2021/12/31 06:55:26;;;;;;;1.40;1.30;;;;;;;7.88;81.95;97340.31;4937307;29;20536;-76
2021/12/31 06:57:53;;;;;;;1.40;1.30;;;;;;;7.87;81.90;97339.50;4937542;29;20047;-76
2021/12/31 07:00:21;;;;;;;4.70;2.45;;;;;;;7.90;82.11;97333.19;4937773;29;20059;-76
2021/12/31 07:02:48;;;;;;;3.08;1.70;;;;;;;7.88;81.55;97329.94;4936781;29;20111;-77
2021/12/31 07:05:16;;;;;;;2.38;1.42;;;;;;;7.81;81.68;97327.09;4937188;29;20055;-76
2021/12/31 07:07:44;;;;;;;4.10;2.40;;;;;;;7.75;81.97;97335.47;4937148;29;20056;-76
2021/12/31 07:10:13;;;;;;;3.40;2.08;;;;;;;7.76;83.03;97344.88;4937066;29;20055;-76
2021/12/31 07:12:42;;;;;;;3.42;2.63;;;;;;;7.86;84.09;97344.84;4936981;29;20059;-76
2021/12/31 07:15:10;;;;;;;2.92;2.63;;;;;;;7.97;85.40;97352.41;4937104;29;20051;-76
2021/12/31 07:17:37;;;;;;;2.35;1.83;;;;;;;8.09;85.77;97351.25;4936542;29;20059;-77
2021/12/31 07:20:06;;;;;;;3.55;2.20;;;;;;;8.10;84.10;97342.47;4936882;29;20055;-76
2021/12/31 07:22:34;;;;;;;4.38;3.03;;;;;;;8.17;84.83;97350.50;4936693;29;20055;-76
2021/12/31 07:25:02;;;;;;;9.02;3.92;;;;;;;8.28;86.25;97359.88;4936492;29;20059;-76
2021/12/31 07:27:31;;;;;;;3.70;2.10;;;;;;;8.35;85.70;97366.94;4936359;29;20055;-76
2021/12/31 07:30:00;;;;;;;3.60;2.38;;;;;;;8.30;82.77;97368.34;4936341;29;20478;-76
2021/12/31 07:32:28;;;;;;;2.58;1.70;;;;;;;8.24;82.33;97362.78;4936618;29;20055;-76
2021/12/31 07:34:55;;;;;;;2.08;1.63;;;;;;;8.19;82.01;97362.38;4975690;23;20059;-79
2021/12/31 07:37:23;;;;;;;4.72;1.77;;;;;;;8.14;81.65;97364.63;4962033;28;20081;-79
2021/12/31 07:39:58;;;;;;;4.60;1.98;;;;;;;8.08;81.58;97370.41;4961229;28;20082;-81
2021/12/31 07:42:26;;;;;;;4.82;2.75;;;;;;;8.01;81.51;97364.97;4960408;29;20051;-80
2021/12/31 07:44:53;;;;;;;2.55;2.35;;;;;;;7.97;81.89;97371.41;4947782;29;20052;-81
2021/12/31 07:47:22;;;;;;;2.25;1.73;;;;;;;7.98;81.66;97354.03;4943739;29;20055;-81
2021/12/31 07:49:50;;;;;;;1.58;1.48;;;;;;;7.99;81.85;97359.09;4942147;29;20062;-80
2021/12/31 07:52:17;;;;;;;3.85;2.10;;;;;;;8.06;82.68;97351.53;4942092;29;20047;-80
2021/12/31 07:54:45;;;;;;;4.82;1.77;;;;;;;8.12;83.10;97345.75;4941197;29;20055;-82
2021/12/31 07:57:12;;;;;;;2.88;2.05;;;;;;;8.11;81.92;97345.88;4942822;29;20519;-84
2021/12/31 07:59:40;;;;;;;4.15;1.80;;;;;;;8.04;81.28;97343.88;4940753;29;20063;-80
2021/12/31 08:02:08;;;;;;;2.83;1.80;;;;;;;8.00;81.15;97341.72;4940641;29;20074;-84
2021/12/31 08:04:37;;;;;;;3.80;2.05;;;;;;;7.93;81.11;97343.28;4942585;29;20052;-80
2021/12/31 08:07:04;;;;;;;2.75;1.73;;;;;;;7.87;81.10;97346.47;4942928;29;20071;-80
2021/12/31 08:09:32;;;;;;;2.60;1.85;;;;;;;7.83;81.70;97349.38;4942729;29;20048;-81
2021/12/31 08:11:59;;;;;;;3.47;2.30;;;;;;;7.81;81.45;97351.28;4943227;29;20055;-79
2021/12/31 08:14:27;;;;;;;2.35;2.03;;;;;;;7.84;81.94;97350.97;4940785;29;20426;-83
2021/12/31 08:16:55;;;;;;;3.65;2.38;;;;;;;7.84;81.27;97356.19;4940576;29;20381;-80
2021/12/31 08:19:22;;;;;;;2.35;1.80;;;;;;;7.83;81.73;97357.16;4941804;29;20051;-79
2021/12/31 08:21:51;;;;;;;3.08;2.45;;;;;;;7.83;81.45;97346.75;4939714;29;20055;-81
2021/12/31 08:24:19;;;;;;;1.85;1.67;;;;;;;7.88;82.12;97337.72;4939482;29;20051;-83
2021/12/31 08:26:46;;;;;;;3.45;2.53;;;;;;;8.00;84.21;97341.72;4939766;29;20051;-78
2021/12/31 08:29:15;;;;;;;3.28;2.65;;;;;;;8.07;83.68;97350.59;4939289;29;20157;-82
2021/12/31 08:31:43;;;;;;;4.15;2.53;;;;;;;8.11;82.17;97353.69;4939129;29;20058;-78
2021/12/31 08:34:10;;;;;;;5.45;2.38;;;;;;;8.12;81.79;97350.94;4939578;29;20044;-77
2021/12/31 08:36:38;;;;;;;2.30;2.10;;;;;;;8.18;82.76;97350.38;4939293;29;20058;-85
2021/12/31 08:39:09;;;;;;;2.42;2.20;;;;;;;8.20;81.84;97364.03;4940092;29;20054;-78
2021/12/31 08:41:38;;;;;;;1.85;1.70;;;;;;;8.22;81.67;97356.91;4939697;29;20533;-79
2021/12/31 08:44:15;;;;;;;2.22;2.08;;;;;;;8.30;82.05;97357.94;4938484;29;20506;-77
2021/12/31 08:46:44;;;;;;;4.15;2.08;;;;;;;8.34;81.38;97369.69;4939694;29;20051;-79
2021/12/31 08:49:11;;;;;;;2.95;2.65;;;;;;;8.35;80.79;97366.09;4940267;29;20505;-77
2021/12/31 08:51:39;;;;;;;2.80;2.20;;;;;;;8.42;81.43;97362.00;4939955;29;20059;-77
2021/12/31 08:54:08;;;;;;;2.97;2.13;;;;;;;8.49;81.92;97357.00;4939683;29;20044;-80
2021/12/31 08:56:35;;;;;;;5.07;3.28;;;;;;;8.56;82.94;97356.25;4940283;29;20048;-77
2021/12/31 08:59:03;;;;;;;4.68;3.58;;;;;;;8.64;83.03;97358.91;4939816;29;20063;-81
2021/12/31 09:01:31;;;;;;;2.40;2.00;;;;;;;8.66;82.08;97349.19;4939903;29;20051;-78
2021/12/31 09:03:58;;;;;;;3.92;2.30;;;;;;;8.71;82.18;97346.13;4940019;29;20060;-81
2021/12/31 09:06:26;;;;;;;2.92;2.28;;;;;;;8.77;82.82;97344.72;4939335;29;20058;-84
2021/12/31 09:08:53;;;;;;;3.33;2.60;;;;;;;8.82;82.90;97348.47;4939401;29;20055;-77
2021/12/31 09:11:22;;;;;;;4.82;2.88;;;;;;;8.91;84.01;97353.75;4943276;29;20056;-82
2021/12/31 09:13:53;;;;;;;3.40;3.10;;;;;;;8.96;84.69;97338.47;4943594;29;20189;-82
2021/12/31 09:16:21;;;;;;;3.58;2.90;;;;;;;9.00;84.67;97338.00;4942959;29;20394;-80
2021/12/31 09:18:49;;;;;;;3.72;3.10;;;;;;;9.07;85.29;97348.63;4942881;29;20062;-81
2021/12/31 09:21:17;;;;;;;3.05;2.70;;;;;;;9.13;85.53;97355.81;4942942;29;20052;-83
2021/12/31 09:23:45;;;;;;;5.07;3.20;;;;;;;9.18;85.40;97357.97;4943010;29;20083;-79
2021/12/31 09:26:13;;;;;;;4.40;3.30;;;;;;;9.23;85.72;97355.72;4945918;29;20085;-82
2021/12/31 09:28:42;;;;;;;2.65;2.45;;;;;;;9.29;86.35;97355.09;4945712;29;20055;-77
2021/12/31 09:31:10;;;;;;;3.42;2.90;;;;;;;9.34;86.12;97346.84;4946174;29;20048;-82
2021/12/31 09:33:38;;;;;;;3.22;2.92;;;;;;;9.37;85.99;97351.72;4946373;29;20075;-79
2021/12/31 09:36:06;;;;;;;3.78;2.50;;;;;;;9.41;85.62;97356.47;4945308;29;20051;-79
2021/12/31 09:38:33;;;;;;;2.50;2.30;;;;;;;9.45;85.48;97357.78;4945236;29;20063;-81
2021/12/31 09:41:01;;;;;;;2.60;2.40;;;;;;;9.53;85.86;97357.00;4946212;29;20058;-78
2021/12/31 09:43:28;;;;;;;3.13;2.05;;;;;;;9.59;86.14;97351.16;4945301;29;20055;-78
2021/12/31 09:45:57;;;;;;;3.10;2.47;;;;;;;9.64;85.33;97342.88;4945397;29;20521;-77
2021/12/31 09:48:25;;;;;;;2.53;2.15;;;;;;;9.73;85.48;97338.50;4945522;29;20080;-79
2021/12/31 09:50:55;;;;;;;3.53;2.35;;;;;;;9.78;85.91;97336.25;4945462;29;20048;-82
2021/12/31 09:53:24;;;;;;;3.42;2.60;;;;;;;9.84;85.83;97338.25;4945317;29;20064;-77
2021/12/31 09:55:53;;;;;;;3.10;2.15;;;;;;;9.89;85.54;97334.16;4946004;29;20047;-77
2021/12/31 09:58:22;;;;;;;3.25;1.90;;;;;;;9.95;84.84;97327.50;4945273;29;20059;-79
2021/12/31 10:00:52;;;;;;;2.00;1.80;;;;;;;10.01;84.05;97326.03;4947281;29;20043;-78
2021/12/31 10:03:25;;;;;;;2.55;2.03;;;;;;;10.05;82.66;97330.78;4946506;29;20056;-79
2021/12/31 10:05:54;;;;;;;2.25;2.05;;;;;;;10.12;83.72;97330.94;4946952;29;20047;-79
2021/12/31 10:08:23;;;;;;;2.28;1.73;;;;;;;10.19;83.13;97331.94;4947476;29;20063;-80
2021/12/31 10:11:05;;;;;;;5.53;3.00;;;;;;;10.25;82.23;97326.06;4947302;29;20051;-80
2021/12/31 10:13:34;;;;;;;2.20;1.90;;;;;;;10.34;83.41;97329.53;4946891;29;20055;-81
2021/12/31 10:16:02;;;;;;;1.33;1.20;;;;;;;10.42;81.95;97321.72;4947644;29;20074;-80
2021/12/31 10:18:33;;;;;;;1.48;1.38;;;;;;;10.48;80.52;97325.47;4947488;29;20047;-82
2021/12/31 10:21:01;;;;;;;1.35;1.15;;;;;;;10.57;81.61;97329.72;4947364;29;20052;-79
2021/12/31 10:23:29;;;;;;;1.67;1.23;;;;;;;10.64;81.05;97328.06;4949293;29;20063;-80
2021/12/31 10:26:07;;;;;;;1.60;1.50;;;;;;;10.71;80.15;97323.84;4949461;29;20048;-80
2021/12/31 10:28:35;;;;;;;3.30;1.92;;;;;;;10.79;80.71;97328.22;4946704;29;20059;-81
2021/12/31 10:31:14;;;;;;;3.65;2.10;;;;;;;10.90;82.37;97327.88;4947523;29;20055;-82
2021/12/31 10:33:44;;;;;;;1.85;1.67;;;;;;;10.96;79.99;97317.78;4946897;29;20138;-79
2021/12/31 10:36:37;;;;;;;2.20;1.50;;;;;;;11.04;79.89;97315.97;4945078;29;20051;-81
2021/12/31 10:39:19;;;;;;;1.73;1.35;;;;;;;11.10;78.31;97304.00;4946759;29;20056;-78
2021/12/31 10:41:51;;;;;;;1.80;1.40;;;;;;;11.17;77.96;97302.34;4945856;29;20499;-80
2021/12/31 10:44:19;;;;;;;1.90;1.17;;;;;;;11.26;77.88;97309.19;4946680;29;20110;-80
2021/12/31 10:47:07;;;;;;;1.33;1.08;;;;;;;11.36;78.27;97298.53;4945605;29;20047;-79
2021/12/31 10:49:57;;;;;;;2.67;1.52;;;;;;;11.45;78.95;97302.75;4946346;29;20062;-79
2021/12/31 10:52:28;;;;;;;1.50;0.98;;;;;;;11.54;78.48;97312.19;4944635;29;20075;-79
2021/12/31 10:55:02;;;;;;;1.52;0.68;;;;;;;11.63;78.29;97304.31;4945709;29;20063;-78
2021/12/31 10:57:35;;;;;;;0.93;0.80;;;;;;;11.71;79.08;97293.81;4945948;29;20529;-79
2021/12/31 11:00:04;;;;;;;6.63;1.60;;;;;;;11.79;78.29;97288.56;4946763;29;20059;-79
2021/12/31 11:02:33;;;;;;;1.90;0.98;;;;;;;11.86;76.77;97284.25;4945223;29;20514;-79
2021/12/31 11:05:02;;;;;;;1.58;1.10;;;;;;;11.96;75.97;97284.06;4945390;29;20067;-77
2021/12/31 11:07:31;;;;;;;0.82;0.75;;;;;;;12.01;76.17;97271.28;4945055;29;20056;-82
2021/12/31 11:10:25;;;;;;;0.90;0.90;;;;;;;12.11;77.40;97260.56;4946571;29;20055;-80
2021/12/31 11:12:54;;;;;;;1.08;0.82;;;;;;;12.23;77.57;97264.41;4945663;29;20060;-83
2021/12/31 11:15:22;;;;;;;1.80;1.08;;;;;;;12.33;76.53;97259.75;4946936;29;20413;-82
2021/12/31 11:17:52;;;;;;;4.05;1.35;;;;;;;12.42;75.40;97262.28;4946794;29;20425;-83
2021/12/31 11:20:24;;;;;;;1.42;1.30;;;;;;;12.49;74.99;97273.69;4946424;29;20051;-83
2021/12/31 11:22:52;;;;;;;2.17;1.08;;;;;;;12.60;76.39;97275.88;4946647;29;20052;-83
2021/12/31 11:25:51;;;;;;;3.22;2.10;;;;;;;12.75;76.06;97273.28;4947129;29;20055;-80
2021/12/31 11:28:25;;;;;;;2.95;2.00;;;;;;;12.91;74.81;97256.59;4947809;29;20067;-82
2021/12/31 11:30:53;;;;;;;1.60;1.50;;;;;;;13.06;75.76;97249.56;4948007;29;20044;-81
2021/12/31 11:33:26;;;;;;;1.65;1.55;;;;;;;13.17;72.95;97236.00;4949291;29;20052;-80
2021/12/31 11:36:05;;;;;;;1.38;1.27;;;;;;;13.33;71.71;97249.91;4948928;29;20051;-81
2021/12/31 11:38:44;;;;;;;1.40;1.30;;;;;;;13.53;70.96;97250.94;4949598;29;20062;-80
2021/12/31 11:41:14;;;;;;;3.78;2.00;;;;;;;13.73;71.02;97251.19;4948433;29;20376;-80
2021/12/31 11:43:43;;;;;;;3.13;2.13;;;;;;;13.98;73.08;97258.69;4949730;29;20051;-81
2021/12/31 11:46:32;;;;;;;2.45;2.10;;;;;;;14.27;72.95;97260.38;4950516;29;20407;-84